M I D A S
Marine Information and Data Acquisition System
Tripno 337 of the Zeeleeuw from 2002-09-18 06:45:45 to 2002-09-18 13:57:39
Back to CruiseResearch ActivitiesStationsMapUnderway DataData graphs

EquipmentUnitsComments
TimeDGPSUTC
LatitudeDGPSDM.mWGS84
LongitudeDGPSDM.mWGS84
SpeedMeteo Stationm/sRelative wind speed
DirectionMeteo StationdegRelative wind direction
TemperatureMeteo Stationdeg CelciusAir temperature
PressureMeteo StationPaAtmospheric pressure
HumidityMeteo Station%Relative humidity
Missing or incorrect values are displayed as -999
Metereological data collected by the RV Zeeleeuw from 2002-09-18 06:45:45 to 2002-09-18 13:57:39
Time Latitude Longitude Speed Direction Temperature Pressure Humidity
2002-09-18 06:46 51°13.794 2°55.641 0.4 191 15.1 101680 80
2002-09-18 06:47 51°13.838 2°55.611 0.9 177 15.2 101680 80
2002-09-18 06:48 51°13.909 2°55.565 2.6 220 15.1 101680 79
2002-09-18 06:49 51°14.014 2°55.505 2.8 211 15.1 101680 80
2002-09-18 06:50 51°14.123 2°55.431 2.4 221 15.1 101680 79
2002-09-18 06:51 51°14.223 2°55.319 2.1 222 15.2 101680 79
2002-09-18 06:52 51°14.306 2°55.171 2.6 219 15.2 101680 79
2002-09-18 06:53 51°14.394 2°54.973 3.5 238 15.2 101680 79
2002-09-18 06:54 51°14.476 2°54.713 4.2 228 15.1 101680 79
2002-09-18 06:55 51°14.619 2°54.515 5.9 218 15.2 101690 79
2002-09-18 06:56 51°14.811 2°54.458 5.2 212 15.2 101680 79
2002-09-18 06:57 51°15.009 2°54.391 4.9 208 15.3 101680 79
2002-09-18 06:58 51°15.201 2°54.4 6.5 218 15.3 101680 79
2002-09-18 06:59 51°15.377 2°54.498 6.4 221 15.3 101680 79
2002-09-18 07:00 51°15.53 2°54.674 7.9 217 15.4 101690 79
2002-09-18 07:01 51°15.653 2°54.912 8.3 222 15.4 101680 78
2002-09-18 07:02 51°15.788 2°55.187 10.4 222 15.5 101690 78
2002-09-18 07:03 51°15.916 2°55.461 10.7 217 15.5 101680 78
2002-09-18 07:04 51°16.042 2°55.749 11.3 220 15.5 101680 78
2002-09-18 07:05 51°16.161 2°56.039 10.5 221 15.6 101670 78
2002-09-18 07:06 51°16.28 2°56.325 11.9 221 15.6 101670 78
2002-09-18 07:07 51°16.4 2°56.618 10.9 222 15.6 101670 78
2002-09-18 07:08 51°16.519 2°56.916 11.3 219 15.6 101680 78
2002-09-18 07:09 51°16.626 2°57.21 10.8 221 15.6 101670 78
2002-09-18 07:10 51°16.739 2°57.515 12.5 223 15.6 101670 78
2002-09-18 07:11 51°16.846 2°57.813 11.4 225 15.7 101680 78
2002-09-18 07:12 51°16.954 2°58.116 11.6 224 15.7 101670 78
2002-09-18 07:13 51°17.065 2°58.422 11.8 220 15.7 101670 78
2002-09-18 07:14 51°17.177 2°58.71 10.7 224 15.6 101680 78
2002-09-18 07:15 51°17.289 2°59.01 10.2 221 15.6 101670 78
2002-09-18 07:16 51°17.398 2°59.302 10.8 224 15.6 101670 78
2002-09-18 07:17 51°17.507 2°59.603 10.8 224 15.6 101680 78
2002-09-18 07:18 51°17.622 2°59.894 10.4 315 15.6 101670 77
2002-09-18 07:19 51°17.737 3°0.183 9.8 226 15.6 101680 77
2002-09-18 07:20 51°17.852 3°0.478 9.5 225 15.7 101680 78
2002-09-18 07:21 51°17.967 3°0.766 10 230 15.6 101670 77
2002-09-18 07:22 51°18.076 3°1.049 9.5 224 15.6 101680 77
2002-09-18 07:23 51°18.189 3°1.337 9.8 222 15.6 101690 77
2002-09-18 07:24 51°18.303 3°1.622 9 227 15.6 101680 76
2002-09-18 07:25 51°18.416 3°1.914 9 234 15.6 101680 77
2002-09-18 07:26 51°18.529 3°2.194 9.3 225 15.6 101690 77
2002-09-18 07:27 51°18.642 3°2.477 8.7 220 15.6 101680 76
2002-09-18 07:28 51°18.761 3°2.756 8.8 216 15.7 101690 77
2002-09-18 07:29 51°18.872 3°3.043 8.9 220 15.6 101690 76
2002-09-18 07:30 51°18.984 3°3.338 8.9 219 15.7 101680 77
2002-09-18 07:31 51°19.099 3°3.623 9.5 218 15.7 101680 76
2002-09-18 07:32 51°19.214 3°3.901 9.6 218 15.7 101690 76
2002-09-18 07:33 51°19.328 3°4.189 9.4 216 15.8 101690 75
2002-09-18 07:34 51°19.443 3°4.474 9.4 220 15.8 101680 76
2002-09-18 07:35 51°19.558 3°4.761 10.3 217 15.8 101680 75
2002-09-18 07:36 51°19.688 3°5.032 9.7 212 15.8 101690 75
2002-09-18 07:37 51°19.824 3°5.296 8.7 212 15.9 101680 76
2002-09-18 07:38 51°19.966 3°5.552 9.2 213 15.9 101680 76
2002-09-18 07:39 51°20.11 3°5.805 10.4 215 15.9 101670 76
2002-09-18 07:40 51°20.257 3°6.051 9.1 202 15.9 101680 75
2002-09-18 07:41 51°20.423 3°6.265 9.5 205 15.9 101690 75
2002-09-18 07:42 51°20.59 3°6.474 9.4 206 15.9 101680 75
2002-09-18 07:43 51°20.751 3°6.695 9.1 207 15.9 101680 75
2002-09-18 07:44 51°20.919 3°6.903 8.8 211 15.9 101670 75
2002-09-18 07:45 51°21.081 3°7.128 8.5 212 15.9 101670 75
2002-09-18 07:46 51°21.253 3°7.344 9.8 210 15.9 101690 75
2002-09-18 07:47 51°21.426 3°7.569 10.4 215 15.9 101670 75
2002-09-18 07:48 51°21.591 3°7.81 10.4 218 16 101670 75
2002-09-18 07:49 51°21.758 3°8.051 9.7 217 16.1 101660 76
2002-09-18 07:50 51°21.919 3°8.302 11.5 225 16.1 101680 75
2002-09-18 07:51 51°22.078 3°8.564 10.8 224 16 101670 71
2002-09-18 07:52 51°22.233 3°8.818 10.7 224 16.1 101660 70
2002-09-18 07:53 51°22.391 3°9.077 9.9 221 16.2 101660 69
2002-09-18 07:54 51°22.494 3°9.257 7.3 215 16.3 101680 71
2002-09-18 07:55 51°22.551 3°9.35 6.4 208 16.3 101670 70
2002-09-18 07:56 51°22.608 3°9.417 6.1 195 16.2 101670 70
2002-09-18 07:57 51°22.655 3°9.465 4.9 181 16.3 101680 71
2002-09-18 07:58 51°22.687 3°9.497 4.5 193 16.3 101680 72
2002-09-18 07:59 51°22.71 3°9.518 4.9 177 16.3 101690 71
2002-09-18 08:00 51°22.724 3°9.528 3.7 179 16.2 101690 70
2002-09-18 08:01 51°22.735 3°9.533 3.8 155 16.3 101690 70
2002-09-18 08:02 51°22.747 3°9.531 4.1 144 16.2 101700 70
2002-09-18 08:03 51°22.755 3°9.517 3.2 120 16.3 101700 70
2002-09-18 08:04 51°22.761 3°9.495 3 82 16.3 101700 70
2002-09-18 08:05 51°22.76 3°9.467 3 52 16.3 101700 70
2002-09-18 08:06 51°22.754 3°9.438 4.1 41 16.4 101700 71
2002-09-18 08:07 51°22.744 3°9.411 4.2 20 16.3 101710 68
2002-09-18 08:09 51°22.734 3°9.393 4.5 31 16.3 101700 68
2002-09-18 08:10 51°22.725 3°9.382 4.3 26 16.3 101710 68
2002-09-18 08:11 51°22.712 3°9.365 4 358 16.3 101700 68
2002-09-18 08:12 51°22.69 3°9.351 1.9 303 16.4 101700 69
2002-09-18 08:13 51°22.67 3°9.346 5 292 16.5 101700 71
2002-09-18 08:14 51°22.65 3°9.35 4.3 263 16.5 101700 72
2002-09-18 08:15 51°22.634 3°9.36 4.7 257 16.5 101700 72
2002-09-18 08:16 51°22.621 3°9.377 4 236 16.4 101700 72
2002-09-18 08:17 51°22.613 3°9.396 4.4 214 16.4 101700 72
2002-09-18 08:18 51°22.61 3°9.417 3.8 196 16.3 101700 72
2002-09-18 08:19 51°22.613 3°9.435 5.2 177 16.4 101700 73
2002-09-18 08:20 51°22.621 3°9.446 3.7 163 16.3 101690 73
2002-09-18 08:21 51°22.635 3°9.449 3.6 155 16.4 101690 74
2002-09-18 08:22 51°22.65 3°9.452 5.3 141 16.3 101700 72
2002-09-18 08:23 51°22.666 3°9.46 4.5 169 16.4 101690 74
2002-09-18 08:24 51°22.678 3°9.477 4.4 199 16.4 101690 72
2002-09-18 08:25 51°22.682 3°9.496 4 206 16.2 101700 72
2002-09-18 08:26 51°22.683 3°9.512 4.3 210 16.2 101700 71
2002-09-18 08:27 51°22.683 3°9.531 4.4 222 16.3 101710 71
2002-09-18 08:28 51°22.683 3°9.558 4.5 218 16.3 101710 72
2002-09-18 08:29 51°22.677 3°9.586 4.2 245 16.3 101700 73
2002-09-18 08:30 51°22.665 3°9.617 4.6 255 16.3 101710 72
2002-09-18 08:31 51°22.646 3°9.643 4.4 287 16.3 101700 72
2002-09-18 08:32 51°22.622 3°9.661 5.8 272 16.4 101710 72
2002-09-18 08:33 51°22.596 3°9.665 3.5 306 16.4 101710 72
2002-09-18 08:34 51°22.569 3°9.656 1.4 326 16.5 101710 73
2002-09-18 08:35 51°22.547 3°9.635 0.8 339 16.4 101710 72
2002-09-18 08:36 51°22.529 3°9.595 2.6 15 16.3 101710 71
2002-09-18 08:37 51°22.567 3°9.473 2 158 16.4 101710 73
2002-09-18 08:38 51°22.698 3°9.232 4.8 204 16.4 101710 71
2002-09-18 08:39 51°22.858 3°8.976 4.2 196 16.3 101710 71
2002-09-18 08:40 51°23.023 3°8.73 3.6 201 16.3 101710 71
2002-09-18 08:41 51°23.186 3°8.483 4.5 201 16.3 101710 71
2002-09-18 08:42 51°23.364 3°8.216 4.2 205 16.4 101700 72
2002-09-18 08:43 51°23.528 3°7.975 4.4 198 16.3 101710 71
2002-09-18 08:44 51°23.692 3°7.721 4.7 193 16.3 101710 72
2002-09-18 08:45 51°23.865 3°7.488 5.2 202 16.3 101710 71
2002-09-18 08:46 51°24.042 3°7.268 5.6 166 16.3 101710 73
2002-09-18 08:47 51°24.144 3°7.133 4.3 137 16.3 101710 72
2002-09-18 08:48 51°24.204 3°7.057 4.2 103 16.4 101710 72
2002-09-18 08:49 51°24.219 3°7.016 4.5 80 16.4 101710 70
2002-09-18 08:50 51°24.225 3°6.996 4.6 98 16.4 101720 72
2002-09-18 08:51 51°24.231 3°6.987 3.6 114 16.5 101710 72
2002-09-18 08:52 51°24.238 3°6.985 4.6 140 16.5 101710 71
2002-09-18 08:53 51°24.246 3°6.993 4.3 146 16.5 101720 71
2002-09-18 08:54 51°24.252 3°7.007 5.8 155 16.5 101710 71
2002-09-18 08:55 51°24.259 3°7.022 4.9 155 16.5 101710 70
2002-09-18 08:56 51°24.266 3°7.034 4.4 129 16.5 101710 71
2002-09-18 08:57 51°24.275 3°7.04 4.2 108 16.5 101720 70
2002-09-18 08:58 51°24.281 3°7.039 3.6 93 16.5 101720 70
2002-09-18 08:59 51°24.284 3°7.032 3.3 59 16.6 101720 71
2002-09-18 09:00 51°24.281 3°7.021 5.3 55 16.5 101720 70
2002-09-18 09:01 51°24.279 3°7.004 4.7 67 16.5 101720 70
2002-09-18 09:02 51°24.28 3°6.988 5.3 75 16.5 101710 71
2002-09-18 09:03 51°24.287 3°6.978 4 80 16.5 101720 72
2002-09-18 09:04 51°24.296 3°6.973 4.7 101 16.5 101720 72
2002-09-18 09:05 51°24.301 3°6.975 4.9 105 16.4 101710 72
2002-09-18 09:06 51°24.306 3°6.982 5.1 97 16.4 101720 72
2002-09-18 09:07 51°24.311 3°6.992 4.9 100 16.5 101720 73
2002-09-18 09:08 51°24.313 3°7.004 5.1 119 16.5 101710 73
2002-09-18 09:09 51°24.313 3°7.019 4.7 119 16.5 101710 72
2002-09-18 09:10 51°24.312 3°7.033 5.6 120 16.6 101720 73
2002-09-18 09:11 51°24.312 3°7.048 5.4 129 16.4 101710 71
2002-09-18 09:12 51°24.311 3°7.063 5.4 134 16.4 101710 71
2002-09-18 09:13 51°24.309 3°7.08 6.3 122 16.4 101710 72
2002-09-18 09:14 51°24.306 3°7.096 4.8 131 16.5 101700 73
2002-09-18 09:15 51°24.301 3°7.114 4.4 132 16.5 101710 71
2002-09-18 09:16 51°24.297 3°7.131 5.7 126 16.5 101710 72
2002-09-18 09:17 51°24.293 3°7.146 5.4 117 16.5 101710 71
2002-09-18 09:18 51°24.289 3°7.162 5.2 131 16.5 101710 73
2002-09-18 09:19 51°24.284 3°7.18 5.1 136 16.4 101710 70
2002-09-18 09:20 51°24.279 3°7.197 6.1 129 16.5 101710 73
2002-09-18 09:21 51°24.275 3°7.214 5.3 136 16.5 101710 71
2002-09-18 09:22 51°24.271 3°7.233 5 145 16.5 101710 72
2002-09-18 09:23 51°24.273 3°7.255 6.1 150 16.5 101700 72
2002-09-18 09:24 51°24.281 3°7.288 6 177 16.5 101700 72
2002-09-18 09:25 51°24.29 3°7.331 6.6 195 16.4 101700 72
2002-09-18 09:26 51°24.295 3°7.381 5.6 204 16.3 101700 70
2002-09-18 09:27 51°24.299 3°7.437 6.4 207 16.3 101690 71
2002-09-18 09:28 51°24.328 3°7.503 5.5 157 16.3 101690 71
2002-09-18 09:29 51°24.393 3°7.545 5.2 144 16.3 101690 71
2002-09-18 09:30 51°24.479 3°7.556 5.4 143 16.3 101700 71
2002-09-18 09:31 51°24.575 3°7.565 6.3 155 16.4 101690 72
2002-09-18 09:32 51°24.676 3°7.576 4.9 152 16.4 101700 72
2002-09-18 09:33 51°24.777 3°7.593 6.6 170 16.4 101700 72
2002-09-18 09:34 51°24.877 3°7.608 5.7 166 16.3 101700 71
2002-09-18 09:35 51°24.976 3°7.618 7.4 171 16.4 101700 73
2002-09-18 09:36 51°25.075 3°7.632 7 174 16.4 101700 73
2002-09-18 09:37 51°25.174 3°7.649 7.1 173 16.4 101710 74
2002-09-18 09:38 51°25.273 3°7.663 6.5 174 16.4 101700 73
2002-09-18 09:39 51°25.371 3°7.674 5.3 176 16.3 101700 71
2002-09-18 09:40 51°25.473 3°7.686 5.6 177 16.3 101710 72
2002-09-18 09:41 51°25.571 3°7.701 6.7 180 16.3 101710 72
2002-09-18 09:42 51°25.671 3°7.715 6.8 173 16.3 101700 72
2002-09-18 09:43 51°25.772 3°7.728 6.9 171 16.3 101690 72
2002-09-18 09:44 51°25.873 3°7.74 6.5 176 16.3 101690 70
2002-09-18 09:45 51°25.976 3°7.752 5.3 179 16.3 101700 71
2002-09-18 09:46 51°26.079 3°7.763 5.8 176 16.3 101700 71
2002-09-18 09:47 51°26.179 3°7.775 6.9 174 16.3 101700 71
2002-09-18 09:48 51°26.283 3°7.788 5.4 190 16.4 101700 72
2002-09-18 09:49 51°26.382 3°7.829 6.7 197 16.3 101700 70
2002-09-18 09:50 51°26.478 3°7.879 6.6 198 16.3 101700 70
2002-09-18 09:51 51°26.574 3°7.937 5.5 186 16.2 101710 70
2002-09-18 09:52 51°26.67 3°7.991 5.2 182 16.2 101700 71
2002-09-18 09:53 51°26.766 3°8.04 5.9 188 16.2 101700 70
2002-09-18 09:54 51°26.858 3°8.097 5.6 195 16.2 101690 70
2002-09-18 09:55 51°26.948 3°8.179 5.9 200 16.2 101710 69
2002-09-18 09:56 51°27.041 3°8.262 6.7 204 16.2 101700 70
2002-09-18 09:57 51°27.138 3°8.344 7.3 204 16.2 101700 70
2002-09-18 09:58 51°27.232 3°8.42 7.2 200 16.2 101700 70
2002-09-18 09:59 51°27.327 3°8.499 6.3 198 16.2 101700 71
2002-09-18 10:00 51°27.425 3°8.58 6.5 197 16.2 101700 71
2002-09-18 10:01 51°27.519 3°8.658 6.1 192 16.2 101690 70
2002-09-18 10:02 51°27.616 3°8.736 6.7 202 16.2 101710 70
2002-09-18 10:03 51°27.696 3°8.802 6 194 16.2 101710 70
2002-09-18 10:04 51°27.768 3°8.865 4.9 187 16.2 101700 70
2002-09-18 10:05 51°27.835 3°8.928 4.6 185 16.2 101700 71
2002-09-18 10:06 51°27.903 3°8.993 4.8 200 16.2 101700 72
2002-09-18 10:07 51°27.97 3°9.061 5.6 208 16.2 101710 71
2002-09-18 10:08 51°28.037 3°9.134 5.3 205 16.2 101700 71
2002-09-18 10:09 51°28.102 3°9.208 5.7 196 16.2 101700 70
2002-09-18 10:10 51°28.152 3°9.25 4.3 150 16.2 101700 70
2002-09-18 10:11 51°28.185 3°9.24 3.1 89 16.2 101700 71
2002-09-18 10:12 51°28.193 3°9.209 3.3 47 16.3 101710 71
2002-09-18 10:13 51°28.185 3°9.187 2.8 27 16.4 101710 70
2002-09-18 10:14 51°28.172 3°9.17 2.8 133 16.4 101710 70
2002-09-18 10:15 51°28.161 3°9.152 3.5 20 16.5 101710 70
2002-09-18 10:16 51°28.154 3°9.132 2.8 47 16.5 101710 70
2002-09-18 10:17 51°28.152 3°9.113 3.6 70 16.6 101710 69
2002-09-18 10:18 51°28.155 3°9.098 2.9 78 16.5 101710 68
2002-09-18 10:19 51°28.161 3°9.089 3.9 87 16.5 101710 69
2002-09-18 10:20 51°28.168 3°9.085 3.5 91 16.5 101710 69
2002-09-18 10:21 51°28.177 3°9.088 3.1 99 16.5 101700 70
2002-09-18 10:22 51°28.185 3°9.096 2.1 102 16.5 101710 69
2002-09-18 10:23 51°28.192 3°9.109 3.4 118 16.5 101700 69
2002-09-18 10:24 51°28.198 3°9.123 3.8 104 16.5 101700 70
2002-09-18 10:25 51°28.202 3°9.139 4.7 115 16.5 101700 69
2002-09-18 10:26 51°28.205 3°9.156 4.1 121 16.6 101700 70
2002-09-18 10:27 51°28.216 3°9.155 3.7 115 16.5 101700 69
2002-09-18 10:28 51°28.223 3°9.142 2.8 69 16.5 101700 68
2002-09-18 10:29 51°28.221 3°9.133 3.6 32 16.6 101700 70
2002-09-18 10:30 51°28.209 3°9.13 4.7 1 16.6 101700 69
2002-09-18 10:31 51°28.192 3°9.132 2.2 349 16.6 101700 69
2002-09-18 10:32 51°28.175 3°9.137 0.6 336 16.6 101700 69
2002-09-18 10:33 51°28.156 3°9.145 1.8 343 16.6 101700 69
2002-09-18 10:34 51°28.139 3°9.156 1.2 317 16.6 101700 69
2002-09-18 10:35 51°28.128 3°9.17 1.4 312 16.6 101700 69
2002-09-18 10:36 51°28.109 3°9.179 0.5 328 16.6 101700 68
2002-09-18 10:37 51°28.095 3°9.16 3.7 21 16.5 101710 67
2002-09-18 10:38 51°28.097 3°9.136 2.9 93 16.7 101700 69
2002-09-18 10:39 51°28.113 3°9.119 3.9 115 16.7 101700 69
2002-09-18 10:40 51°28.134 3°9.109 3.6 127 16.6 101710 68
2002-09-18 10:41 51°28.161 3°9.102 4.4 123 16.6 101710 68
2002-09-18 10:42 51°28.19 3°9.102 4 144 16.6 101700 69
2002-09-18 10:43 51°28.221 3°9.108 4.1 141 16.6 101700 68
2002-09-18 10:44 51°28.251 3°9.121 3.6 154 16.6 101700 67
2002-09-18 10:45 51°28.284 3°9.137 4.1 165 16.6 101690 68
2002-09-18 10:46 51°28.315 3°9.081 2.1 122 16.7 101690 69
2002-09-18 10:47 51°28.313 3°8.877 2 179 16.7 101690 68
2002-09-18 10:48 51°28.317 3°8.633 1.9 198 16.7 101690 69
2002-09-18 10:49 51°28.327 3°8.385 2.1 190 16.6 101690 68
2002-09-18 10:50 51°28.339 3°8.141 2.3 213 16.7 101690 70
2002-09-18 10:51 51°28.349 3°7.889 3 198 16.6 101690 68
2002-09-18 10:52 51°28.36 3°7.64 2 204 16.6 101690 68
2002-09-18 10:53 51°28.371 3°7.394 2.1 216 16.5 101690 68
2002-09-18 10:54 51°28.383 3°7.139 2.3 209 16.5 101690 68
2002-09-18 10:55 51°28.395 3°6.888 2.4 194 16.5 101680 68
2002-09-18 10:56 51°28.405 3°6.643 1.9 221 16.5 101680 68
2002-09-18 10:57 51°28.418 3°6.39 1.9 223 16.5 101690 68
2002-09-18 10:58 51°28.431 3°6.141 2.3 225 16.6 101690 68
2002-09-18 10:59 51°28.444 3°5.892 2.1 205 16.6 101690 68
2002-09-18 11:00 51°28.458 3°5.644 1.3 214 16.6 101690 68
2002-09-18 11:01 51°28.471 3°5.401 2.3 225 16.7 101700 68
2002-09-18 11:02 51°28.485 3°5.156 2.3 212 16.8 101690 67
2002-09-18 11:03 51°28.498 3°4.91 2.1 201 16.7 101690 67
2002-09-18 11:04 51°28.511 3°4.66 2.7 235 16.7 101700 67
2002-09-18 11:05 51°28.523 3°4.446 1.2 179 16.8 101700 67
2002-09-18 11:06 51°28.554 3°4.273 2.7 160 16.9 101690 68
2002-09-18 11:07 51°28.623 3°4.144 3.1 151 16.9 101690 67
2002-09-18 11:08 51°28.678 3°4.05 3.3 140 16.8 101700 67
2002-09-18 11:09 51°28.709 3°3.96 1.6 76 16.8 101690 68
2002-09-18 11:10 51°28.718 3°3.874 1.1 41 16.9 101700 67
2002-09-18 11:11 51°28.721 3°3.802 2.2 32 16.9 101690 68
2002-09-18 11:12 51°28.711 3°3.771 2.3 11 16.9 101690 66
2002-09-18 11:13 51°28.697 3°3.762 1.5 349 16.9 101690 66
2002-09-18 11:14 51°28.695 3°3.771 1.1 338 16.9 101690 66
2002-09-18 11:15 51°28.694 3°3.785 0.3 321 16.9 101700 67
2002-09-18 11:16 51°28.693 3°3.803 3.6 359 16.9 101690 68
2002-09-18 11:17 51°28.689 3°3.822 3.2 357 16.9 101690 67
2002-09-18 11:18 51°28.686 3°3.837 2.5 16 16.8 101690 66
2002-09-18 11:19 51°28.685 3°3.841 3.4 61 16.9 101690 68
2002-09-18 11:20 51°28.692 3°3.835 2.5 89 16.9 101690 66
2002-09-18 11:21 51°28.703 3°3.825 2.9 81 16.9 101680 67
2002-09-18 11:22 51°28.715 3°3.812 2.8 80 16.9 101670 68
2002-09-18 11:23 51°28.722 3°3.796 2.2 64 16.8 101680 67
2002-09-18 11:24 51°28.723 3°3.782 2 29 16.8 101680 68
2002-09-18 11:25 51°28.717 3°3.776 2.5 19 16.8 101670 68
2002-09-18 11:26 51°28.713 3°3.768 1.5 19 16.8 101670 68
2002-09-18 11:27 51°28.71 3°3.756 1.7 22 16.8 101680 68
2002-09-18 11:28 51°28.706 3°3.745 2.5 3 16.8 101680 68
2002-09-18 11:29 51°28.699 3°3.738 2.5 22 16.9 101670 69
2002-09-18 11:30 51°28.697 3°3.726 2.4 39 16.8 101670 68
2002-09-18 11:31 51°28.705 3°3.712 2.1 61 16.8 101680 68
2002-09-18 11:32 51°28.716 3°3.702 2.5 50 16.8 101670 67
2002-09-18 11:33 51°28.721 3°3.699 2.1 27 16.8 101670 67
2002-09-18 11:34 51°28.721 3°3.708 2.4 5 16.8 101680 67
2002-09-18 11:35 51°28.719 3°3.726 1.3 1 16.9 101670 67
2002-09-18 11:36 51°28.718 3°3.736 3.1 49 16.9 101670 67
2002-09-18 11:37 51°28.721 3°3.735 2.1 64 17.1 101670 69
2002-09-18 11:38 51°28.724 3°3.733 2.6 55 17.1 101670 68
2002-09-18 11:39 51°28.726 3°3.728 2.4 52 17.2 101670 67
2002-09-18 11:40 51°28.728 3°3.722 1.9 46 17.2 101670 66
2002-09-18 11:41 51°28.729 3°3.715 2 36 17.1 101670 66
2002-09-18 11:42 51°28.737 3°3.704 2.5 88 17.2 101670 66
2002-09-18 11:43 51°28.757 3°3.691 3.3 124 17.2 101670 65
2002-09-18 11:44 51°28.788 3°3.689 2.9 151 17.1 101670 65
2002-09-18 11:45 51°28.823 3°3.703 2.8 176 17 101670 66
2002-09-18 11:46 51°28.857 3°3.732 3.1 207 16.9 101670 66
2002-09-18 11:47 51°28.888 3°3.776 3.2 230 16.8 101670 67
2002-09-18 11:48 51°28.909 3°3.832 2.7 259 16.8 101670 66
2002-09-18 11:49 51°28.92 3°3.893 3 292 16.9 101680 68
2002-09-18 11:50 51°28.893 3°3.939 3.3 305 16.9 101670 67
2002-09-18 11:51 51°28.809 3°3.829 3.7 271 17 101670 67
2002-09-18 11:52 51°28.635 3°3.712 6 256 17 101660 67
2002-09-18 11:53 51°28.443 3°3.586 5.9 251 17 101670 65
2002-09-18 11:54 51°28.241 3°3.475 7 255 17.1 101670 66
2002-09-18 11:55 51°28.044 3°3.339 5.7 248 17 101670 65
2002-09-18 11:56 51°27.846 3°3.199 5.7 243 17 101660 65
2002-09-18 11:57 51°27.645 3°3.058 6.2 247 17 101660 65
2002-09-18 11:58 51°27.451 3°2.911 6 245 17 101660 66
2002-09-18 11:59 51°27.255 3°2.77 4.6 251 17 101670 66
2002-09-18 12:00 51°27.057 3°2.628 5.6 245 16.9 101660 67
2002-09-18 12:01 51°26.861 3°2.489 5.3 259 16.9 101660 67
2002-09-18 12:02 51°26.662 3°2.347 5.6 246 17 101660 67
2002-09-18 12:03 51°26.463 3°2.203 6.5 257 17 101660 67
2002-09-18 12:04 51°26.273 3°2.068 4.9 256 17 101660 67
2002-09-18 12:05 51°26.076 3°1.93 5 252 17 101660 67
2002-09-18 12:06 51°25.881 3°1.79 5.6 251 17 101660 66
2002-09-18 12:07 51°25.688 3°1.651 4.7 253 16.9 101660 66
2002-09-18 12:08 51°25.485 3°1.501 4.4 244 16.9 101660 66
2002-09-18 12:09 51°25.289 3°1.359 5.8 250 17 101660 66
2002-09-18 12:10 51°25.093 3°1.212 6 255 17 101650 66
2002-09-18 12:11 51°24.889 3°1.07 6.1 245 16.9 101660 66
2002-09-18 12:12 51°24.692 3°0.933 5.8 253 16.9 101660 66
2002-09-18 12:13 51°24.492 3°0.793 5.6 256 17 101660 67
2002-09-18 12:14 51°24.3 3°0.658 6.5 255 17 101660 67
2002-09-18 12:15 51°24.101 3°0.521 5.1 255 17 101660 66
2002-09-18 12:16 51°23.902 3°0.382 5.4 250 17 101660 66
2002-09-18 12:17 51°23.701 3°0.25 4.8 245 17 101660 66
2002-09-18 12:18 51°23.507 3°0.118 4.4 263 17 101660 67
2002-09-18 12:19 51°23.405 3°0.012 1.1 29 16.9 101670 66
2002-09-18 12:20 51°23.38 2°59.94 1.6 86 16.9 101660 67
2002-09-18 12:21 51°23.376 2°59.888 1.3 29 16.9 101660 67
2002-09-18 12:22 51°23.312 2°59.903 4.9 281 16.9 101650 67
2002-09-18 12:23 51°23.223 2°59.993 5.3 286 16.9 101650 68
2002-09-18 12:24 51°23.215 3°0.021 3.4 13 17 101660 69
2002-09-18 12:25 51°23.219 3°0.031 3 18 16.9 101660 69
2002-09-18 12:26 51°23.221 3°0.029 1.9 33 16.8 101650 68
2002-09-18 12:27 51°23.218 3°0.02 2.5 25 16.9 101660 69
2002-09-18 12:28 51°23.215 3°0.004 1.3 47 16.9 101650 69
2002-09-18 12:29 51°23.215 2°59.981 2.8 64 16.9 101650 69
2002-09-18 12:30 51°23.213 2°59.957 2.6 62 17 101650 68
2002-09-18 12:31 51°23.209 2°59.941 2.3 61 16.9 101650 67
2002-09-18 12:32 51°23.205 2°59.935 2.2 28 17 101650 67
2002-09-18 12:33 51°23.201 2°59.935 2.8 8 17 101650 67
2002-09-18 12:34 51°23.195 2°59.939 2.8 19 16.9 101640 67
2002-09-18 12:35 51°23.191 2°59.934 2.6 74 16.9 101650 67
2002-09-18 12:36 51°23.193 2°59.922 2.8 85 16.9 101650 67
2002-09-18 12:37 51°23.202 2°59.912 2.2 103 16.8 101650 67
2002-09-18 12:38 51°23.217 2°59.903 2 113 16.8 101650 67
2002-09-18 12:39 51°23.234 2°59.898 3.5 132 16.8 101650 68
2002-09-18 12:40 51°23.251 2°59.897 2.7 125 16.8 101650 68
2002-09-18 12:41 51°23.268 2°59.898 3.4 125 16.8 101650 67
2002-09-18 12:42 51°23.286 2°59.896 2.4 105 16.8 101650 67
2002-09-18 12:43 51°23.301 2°59.891 3.2 100 16.8 101650 68
2002-09-18 12:44 51°23.314 2°59.887 2.4 113 16.8 101660 66
2002-09-18 12:45 51°23.327 2°59.884 3.2 102 16.8 101650 67
2002-09-18 12:46 51°23.337 2°59.873 1.7 69 16.8 101660 68
2002-09-18 12:47 51°23.335 2°59.859 1.6 72 16.8 101650 69
2002-09-18 12:48 51°23.327 2°59.861 3.1 349 16.9 101650 69
2002-09-18 12:49 51°23.315 2°59.871 0.8 333 16.8 101650 67
2002-09-18 12:50 51°23.299 2°59.885 3 8 16.8 101650 68
2002-09-18 12:51 51°23.286 2°59.889 2 46 16.8 101650 68
2002-09-18 12:52 51°23.28 2°59.878 2.2 72 16.9 101650 68
2002-09-18 12:53 51°23.285 2°59.859 2.5 114 16.9 101660 67
2002-09-18 12:54 51°23.299 2°59.842 2.5 136 16.9 101650 67
2002-09-18 12:55 51°23.321 2°59.83 2.8 155 16.8 101660 66
2002-09-18 12:56 51°23.347 2°59.827 2.8 194 16.8 101650 67
2002-09-18 12:57 51°23.374 2°59.836 3 204 16.7 101640 68
2002-09-18 12:58 51°23.398 2°59.854 3.3 233 16.7 101650 68
2002-09-18 12:59 51°23.437 2°59.888 3.4 216 16.7 101640 67
2002-09-18 13:00 51°23.51 2°59.793 4.5 206 16.7 101640 67
2002-09-18 13:01 51°23.457 2°59.487 4.9 221 16.7 101640 67
2002-09-18 13:02 51°23.367 2°59.172 4.3 228 16.7 101650 67
2002-09-18 13:03 51°23.264 2°58.864 4.7 219 16.7 101640 67
2002-09-18 13:04 51°23.132 2°58.592 4.1 232 16.7 101640 66
2002-09-18 13:05 51°22.945 2°58.405 4.4 237 16.7 101650 67
2002-09-18 13:06 51°22.76 2°58.212 3.7 228 16.8 101640 67
2002-09-18 13:07 51°22.587 2°57.996 4 239 16.8 101640 67
2002-09-18 13:08 51°22.418 2°57.772 3.5 239 16.8 101630 68
2002-09-18 13:09 51°22.251 2°57.556 4.6 225 16.8 101640 67
2002-09-18 13:10 51°22.074 2°57.332 4 228 16.8 101640 67
2002-09-18 13:11 51°21.902 2°57.111 3.7 233 16.8 101640 67
2002-09-18 13:12 51°21.734 2°56.887 3.6 225 16.8 101630 68
2002-09-18 13:13 51°21.563 2°56.661 3.6 230 16.8 101630 67
2002-09-18 13:14 51°21.391 2°56.445 3.4 240 16.8 101640 67
2002-09-18 13:15 51°21.218 2°56.22 4.5 225 16.9 101630 69
2002-09-18 13:16 51°21.049 2°55.992 3.8 234 16.8 101640 67
2002-09-18 13:17 51°20.907 2°55.722 4.3 211 16.8 101640 68
2002-09-18 13:18 51°20.778 2°55.433 4.4 213 16.8 101640 68
2002-09-18 13:19 51°20.646 2°55.145 3.5 229 16.7 101630 68
2002-09-18 13:20 51°20.485 2°54.906 3.6 228 16.7 101640 69
2002-09-18 13:21 51°20.296 2°54.718 3.2 238 16.7 101630 68
2002-09-18 13:22 51°20.109 2°54.53 3.5 243 16.7 101640 68
2002-09-18 13:23 51°19.924 2°54.329 3.8 242 16.7 101630 68
2002-09-18 13:24 51°19.737 2°54.12 3.5 244 16.8 101630 68
2002-09-18 13:25 51°19.551 2°53.922 3.5 236 16.8 101630 68
2002-09-18 13:26 51°19.367 2°53.727 3.7 229 16.8 101640 68
2002-09-18 13:27 51°19.185 2°53.518 3.9 231 16.9 101630 69
2002-09-18 13:28 51°18.999 2°53.318 3.2 237 16.9 101630 69
2002-09-18 13:29 51°18.803 2°53.139 4.1 241 16.8 101630 68
2002-09-18 13:30 51°18.605 2°52.968 4.2 261 16.8 101620 68
2002-09-18 13:31 51°18.403 2°52.811 3.7 252 16.8 101620 68
2002-09-18 13:32 51°18.194 2°52.685 4.6 270 16.8 101620 67
2002-09-18 13:33 51°17.97 2°52.647 5.1 267 16.8 101620 69
2002-09-18 13:34 51°17.75 2°52.701 6.8 267 16.8 101610 68
2002-09-18 13:35 51°17.542 2°52.845 6.3 269 16.8 101610 68
2002-09-18 13:36 51°17.333 2°52.974 7.5 266 16.9 101610 69
2002-09-18 13:37 51°17.126 2°53.12 6.1 270 16.9 101600 69
2002-09-18 13:38 51°16.915 2°53.223 7.2 271 16.9 101610 70
2002-09-18 13:39 51°16.696 2°53.345 6.6 271 16.8 101600 69
2002-09-18 13:40 51°16.477 2°53.469 6.7 271 16.8 101600 69
2002-09-18 13:41 51°16.259 2°53.594 7.1 263 16.9 101600 70
2002-09-18 13:42 51°16.039 2°53.717 6.1 256 16.8 101600 69
2002-09-18 13:43 51°15.82 2°53.832 7 266 16.9 101600 69
2002-09-18 13:44 51°15.599 2°53.945 7.1 265 16.9 101600 70
2002-09-18 13:45 51°15.402 2°54.085 6.3 276 16.9 101600 70
2002-09-18 13:46 51°15.281 2°54.214 5.1 287 16.9 101600 70
2002-09-18 13:47 51°15.205 2°54.306 4.4 301 16.9 101600 70
2002-09-18 13:48 51°15.143 2°54.372 4.3 308 16.9 101610 70
2002-09-18 13:49 51°15.094 2°54.428 2.7 303 16.9 101600 70
2002-09-18 13:50 51°15.052 2°54.479 0.6 334 16.9 101600 70
2002-09-18 13:51 51°15.009 2°54.52 0.7 342 16.9 101600 70
2002-09-18 13:52 51°14.969 2°54.56 1.3 330 16.9 101600 70
2002-09-18 13:53 51°14.878 2°54.632 5.5 286 16.9 101600 71
2002-09-18 13:54 51°14.726 2°54.733 4.8 281 16.9 101590 70
2002-09-18 13:55 51°14.566 2°54.846 5.3 284 16.9 101590 70
2002-09-18 13:56 51°14.423 2°54.987 5.9 277 16.9 101590 70